Time;durP1;ratioP1;P1;durP2;ratioP2;P2;SDS_P1;SDS_P2;PMS_P1;PMS_P2;Temp;Humidity;BMP_temperature;BMP_pressure;BME280_temperature;BME280_humidity;BME280_pressure;Samples;Min_cycle;Max_cycle;Signal;HPM_P1;HPM_P2
2022/05/13 01:22:20;;;;;;;;;;;;;;;;;;;;;
2022/05/13 01:40:01;;;;;;;8.20;3.20;;;;;;;9.10;72.67;101644.19;5023941;29;20125;-82
2022/05/13 02:12:23;;;;;;;;;;;;;;;;;;;;;
2022/05/13 02:34:52;;;;;;;;;;;;;;;;;;;;;
2022/05/13 03:09:12;;;;;;;15.07;3.90;;;;;;;9.66;75.97;101646.28;4865039;30;20483;-81
2022/05/13 03:11:43;;;;;;;16.53;3.70;;;;;;;9.68;76.33;101649.75;4903968;30;20053;-79
2022/05/13 03:14:15;;;;;;;10.53;3.07;;;;;;;9.67;76.96;101647.13;4906074;30;20107;-82
2022/05/13 03:16:46;;;;;;;15.60;5.30;;;;;;;9.65;77.22;101652.31;4918057;30;20513;-79
2022/05/13 03:19:17;;;;;;;16.43;4.20;;;;;;;9.71;77.87;101645.41;4923417;30;20120;-81
2022/05/13 03:21:49;;;;;;;16.57;4.83;;;;;;;9.73;77.91;101647.16;4924818;30;20052;-84
2022/05/13 03:24:20;;;;;;;12.70;3.73;;;;;;;9.77;77.70;101642.84;4924129;30;20550;-81
2022/05/13 03:26:52;;;;;;;10.07;3.90;;;;;;;9.68;78.33;101638.47;4924399;30;20115;-80
2022/05/13 03:29:24;;;;;;;21.17;5.53;;;;;;;9.65;78.48;101643.66;5034398;29;20113;-84
2022/05/13 03:31:56;;;;;;;15.10;4.82;;;;;;;9.65;78.41;101634.09;5036822;29;20082;-80
2022/05/13 03:34:28;;;;;;;16.03;4.67;;;;;;;9.56;78.85;101633.19;5037633;29;20546;-82
2022/05/13 03:36:59;;;;;;;14.75;3.85;;;;;;;9.51;79.16;101637.50;5115432;29;20044;-81
2022/05/13 03:39:31;;;;;;;11.83;4.43;;;;;;;9.42;79.67;101636.59;5116660;29;20099;-84
2022/05/13 03:42:03;;;;;;;14.93;4.43;;;;;;;9.38;79.62;101644.38;5118894;29;20070;-84
2022/05/13 03:44:35;;;;;;;16.23;5.13;;;;;;;9.33;80.24;101641.75;5116465;29;20092;-82
2022/05/13 03:47:07;;;;;;;;;;;;;;;9.33;79.08;101641.75;5116939;29;20291;-82
2022/05/13 03:49:38;;;;;;;13.88;4.70;;;;;;;9.26;81.12;101640.84;5116183;29;19911;-81
2022/05/13 03:52:10;;;;;;;12.47;4.33;;;;;;;9.26;81.12;101645.19;5116391;29;20106;-81
2022/05/13 03:54:42;;;;;;;17.75;4.65;;;;;;;9.24;81.14;101645.16;5115734;29;20020;-83
2022/05/13 03:57:13;;;;;;;15.00;5.07;;;;;;;9.21;81.59;101641.66;5115780;29;20043;-82
2022/05/13 03:59:45;;;;;;;12.87;5.33;;;;;;;9.15;82.01;101636.44;5115114;29;20180;-84
2022/05/13 04:02:16;;;;;;;14.20;4.97;;;;;;;9.12;82.17;101639.88;5116647;29;20050;-85
2022/05/13 04:10:28;;;;;;;15.65;5.82;;;;;;;9.09;82.98;101640.72;5116813;29;20047;-82
2022/05/13 04:16:04;;;;;;;13.60;4.90;;;;;;;9.07;82.98;101645.03;5116489;29;20130;-83
2022/05/13 04:18:42;;;;;;;14.63;4.97;;;;;;;9.07;82.89;101639.84;5117145;29;20028;-83
2022/05/13 04:21:22;;;;;;;17.45;5.22;;;;;;;9.08;83.18;101646.78;5116937;29;20030;-83
2022/05/13 04:23:56;;;;;;;13.18;5.18;;;;;;;9.07;83.45;101644.19;5116131;29;20145;-81
2022/05/13 04:26:28;;;;;;;14.45;4.82;;;;;;;9.12;83.24;101638.13;5116659;29;20063;-84
2022/05/13 04:29:01;;;;;;;16.45;5.57;;;;;;;9.11;83.61;101640.72;5133282;29;20130;-80
2022/05/13 04:31:39;;;;;;;;;;;;;;;9.19;82.39;101653.78;5151763;29;20074;-82
2022/05/13 04:34:16;;;;;;;17.75;4.82;;;;;;;9.19;83.33;101653.78;5154440;29;19915;-81
2022/05/13 04:36:47;;;;;;;22.40;5.30;;;;;;;9.22;83.09;101656.41;5144113;29;20040;-83
2022/05/13 04:39:19;;;;;;;16.33;6.27;;;;;;;9.23;83.23;101655.56;5138878;29;20209;-83
2022/05/13 06:22:35;;;;;;;18.00;5.82;;;;;;;11.88;74.64;101755.19;4928985;30;20520;-84
2022/05/13 06:26:10;;;;;;;;;;;;;;;;;;;;;
2022/05/13 06:33:42;;;;;;;13.50;5.45;;;;;;;12.36;73.66;101784.72;4949592;29;20048;-82
2022/05/13 06:36:51;;;;;;;;;;;;;;;;;;;;;
2022/05/13 06:43:52;;;;;;;17.50;5.28;;;;;;;12.71;73.29;101778.41;4876453;30;20054;-83
2022/05/13 06:46:48;;;;;;;16.85;6.25;;;;;;;12.59;73.42;101788.97;4875631;30;20046;-84
2022/05/13 06:49:44;;;;;;;15.73;5.90;;;;;;;12.54;73.42;101786.38;4876550;30;20677;-84
2022/05/13 06:52:15;;;;;;;14.88;5.30;;;;;;;12.59;73.34;101784.59;4894812;30;20138;-83
2022/05/13 06:55:06;;;;;;;13.53;5.73;;;;;;;12.81;72.89;101799.28;4896233;30;20053;-84
2022/05/13 06:58:40;;;;;;;20.42;6.50;;;;;;;12.77;72.76;101783.59;4878041;30;20140;-82
2022/05/13 07:05:28;;;;;;;14.07;5.30;;;;;;;13.28;71.42;101792.84;4872276;30;20046;-82
2022/05/13 07:12:16;;;;;;;17.80;6.35;;;;;;;13.45;70.71;101808.47;4875046;30;20062;-82
2022/05/13 07:15:21;;;;;;;17.92;6.18;;;;;;;13.42;70.62;101811.13;4891793;30;20236;-83
2022/05/13 07:18:29;;;;;;;18.10;6.95;;;;;;;13.51;70.92;101800.56;4890711;30;20128;-85
2022/05/13 07:21:42;;;;;;;23.35;6.63;;;;;;;13.56;69.80;101804.00;4890136;30;20053;-82
2022/05/13 07:24:19;;;;;;;20.13;6.85;;;;;;;13.61;70.17;101803.97;4855304;30;20089;-84
2022/05/13 07:27:00;;;;;;;21.58;7.18;;;;;;;13.75;69.74;101790.72;4871532;30;20503;-84
2022/05/13 07:30:46;;;;;;;;;;;;;;;;;;;;;
2022/05/13 07:45:45;;;;;;;;;;;;;;;;;;;;;
2022/05/13 08:06:44;;;;;;;;;;;;;;;;;;;;;
2022/05/13 08:10:30;;;;;;;19.45;5.20;;;;;;;14.70;62.58;101828.13;4858369;30;20054;-82
2022/05/13 08:13:28;;;;;;;;;;;;;;;;;;;;;
2022/05/13 08:39:16;;;;;;;11.93;3.53;;;;;;;15.43;58.02;101841.09;5037514;29;20050;-86
2022/05/13 08:42:46;;;;;;;;;;;;;;;;;;;;;
2022/05/13 09:58:55;;;;;;;9.57;3.47;;;;;;;16.69;48.65;101875.59;6364365;22;4027532;-84
2022/05/13 10:01:51;;;;;;;;;;;;;;;16.95;48.63;101867.19;6479443;23;20346;-85
2022/05/13 10:08:28;;;;;;;10.20;3.05;;;;;;;16.98;48.96;101850.44;6416337;23;20016;-82
2022/05/13 10:15:25;;;;;;;;;;;;;;;;;;;;;
2022/05/13 10:18:52;;;;;;;;;;;;;;;;;;;;;
2022/05/13 10:21:53;;;;;;;8.20;3.45;;;;;;;16.01;50.65;101868.16;6120531;24;20424;-85
2022/05/13 10:24:55;;;;;;;8.77;2.90;;;;;;;16.16;51.23;101873.13;6121953;24;20028;-82
2022/05/13 10:27:46;;;;;;;10.10;3.10;;;;;;;16.23;50.38;101871.25;6120594;24;20452;-80
2022/05/13 10:30:50;;;;;;;10.20;3.17;;;;;;;16.43;49.96;101872.63;6122701;24;20096;-84
2022/05/13 10:33:57;;;;;;;11.68;2.80;;;;;;;18.90;44.64;101873.59;6122239;24;20606;-82
2022/05/13 10:40:46;;;;;;;11.55;3.33;;;;;;;18.13;43.95;101856.41;6100722;24;20029;-85
2022/05/13 10:43:38;;;;;;;10.10;2.63;;;;;;;17.14;45.65;101878.16;6016073;24;20050;-81
2022/05/13 10:47:02;;;;;;;7.27;2.70;;;;;;;18.08;45.22;101851.28;6062501;24;20101;-83
2022/05/13 10:49:56;;;;;;;11.15;3.33;;;;;;;21.00;39.55;101870.81;6067379;24;20021;-81
2022/05/13 10:53:12;;;;;;;9.63;3.13;;;;;;;19.96;40.15;101866.63;6122548;24;20045;-82
2022/05/13 10:56:08;;;;;;;9.63;3.30;;;;;;;18.36;44.25;101858.41;6115110;24;20010;-82
2022/05/13 10:59:24;;;;;;;8.73;2.58;;;;;;;18.59;44.30;101868.31;6157897;24;20066;-82
2022/05/13 11:09:23;;;;;;;7.15;3.10;;;;;;;20.59;39.10;101868.78;6101901;24;20154;-83
2022/05/13 11:12:33;;;;;;;;;;;;;;;;;;;;;
2022/05/13 11:15:29;;;;;;;11.15;3.17;;;;;;;21.01;39.28;101868.13;6085872;24;20074;-82
2022/05/13 11:18:22;;;;;;;11.18;3.10;;;;;;;21.84;36.03;101854.09;6081763;24;20441;-84
2022/05/13 11:21:24;;;;;;;6.13;2.67;;;;;;;20.97;37.44;101866.50;6159349;24;20012;-85
2022/05/13 11:27:22;;;;;;;9.43;2.80;;;;;;;18.85;42.08;101885.19;6196294;24;20048;-83
2022/05/13 11:30:24;;;;;;;10.53;3.37;;;;;;;19.17;42.08;101862.22;6198624;24;20008;-84
2022/05/13 11:33:21;;;;;;;8.77;3.13;;;;;;;19.21;42.53;101879.72;6274613;23;20339;-83
2022/05/13 11:36:33;;;;;;;11.23;3.10;;;;;;;19.35;41.65;101868.69;6294354;23;20015;-82
2022/05/13 11:39:30;;;;;;;12.25;3.25;;;;;;;20.41;39.00;101862.41;6282732;23;20022;-85
2022/05/13 11:42:23;;;;;;;6.95;3.10;;;;;;;22.37;36.38;101865.09;6347688;23;20019;-84
2022/05/13 11:45:25;;;;;;;7.82;2.80;;;;;;;23.22;33.31;101869.16;6469489;23;20017;-87
2022/05/13 11:48:34;;;;;;;7.88;2.60;;;;;;;22.13;35.34;101875.84;6434733;23;20051;-83
2022/05/13 11:51:34;;;;;;;9.98;2.75;;;;;;;19.62;39.42;101888.91;6434835;23;20455;-82
2022/05/13 11:54:44;;;;;;;11.35;4.13;;;;;;;20.56;39.21;101859.19;6411012;23;20016;-85
2022/05/13 11:58:33;;;;;;;9.20;3.95;;;;;;;21.53;36.75;101854.56;6440534;23;20009;-86
2022/05/13 12:01:36;;;;;;;13.48;2.92;;;;;;;19.79;39.81;101875.19;6311303;23;20034;-86
2022/05/13 12:04:14;;;;;;;23.85;4.50;;;;;;;18.84;41.39;101876.41;6313842;23;20028;-81
2022/05/13 12:06:57;;;;;;;21.65;4.82;;;;;;;19.46;40.55;101877.13;6312268;23;20043;-82
2022/05/13 12:10:12;;;;;;;;;;;;;;;;;;;;;
2022/05/13 12:13:09;;;;;;;7.75;3.00;;;;;;;19.79;40.32;101875.19;6313085;23;20154;-84
2022/05/13 12:16:03;;;;;;;8.48;3.72;;;;;;;20.90;38.14;101878.28;6313438;23;20410;-83
2022/05/13 12:18:59;;;;;;;10.80;3.63;;;;;;;20.98;38.00;101875.31;6333556;23;20014;-82
2022/05/13 12:21:48;;;;;;;6.43;3.35;;;;;;;22.36;34.45;101847.44;6375882;23;20021;-83
2022/05/13 12:24:48;;;;;;;;;;;;;;;;;;;;;
2022/05/13 12:27:39;;;;;;;13.00;4.03;;;;;;;20.32;37.84;101876.84;6375429;23;20080;-84
2022/05/13 12:30:34;;;;;;;11.52;3.92;;;;;;;21.03;37.44;101876.00;6374910;23;20507;-83
2022/05/13 12:33:29;;;;;;;10.02;4.18;;;;;;;21.27;35.81;101879.47;6376391;23;20069;-84
2022/05/13 12:43:53;;;;;;;9.93;5.53;;;;;;;21.99;35.98;101857.91;6413607;23;20013;-85
2022/05/13 12:46:49;;;;;;;9.50;4.85;;;;;;;23.38;34.10;101851.50;6344328;23;20282;-84
2022/05/13 12:49:27;;;;;;;17.05;6.22;;;;;;;25.71;30.54;101835.31;6281874;23;20091;-84
2022/05/13 12:52:16;;;;;;;12.23;6.07;;;;;;;25.95;29.34;101857.88;6261996;23;20015;-83
2022/05/13 12:55:28;;;;;;;9.40;5.80;;;;;;;25.81;29.74;101879.22;6283836;23;20011;-84
2022/05/13 12:58:11;;;;;;;13.52;5.47;;;;;;;25.47;30.25;101860.72;6257153;23;20011;-82
2022/05/13 13:00:48;;;;;;;16.20;5.63;;;;;;;23.69;31.04;101863.25;6286493;23;20078;-85
2022/05/13 13:03:22;;;;;;;7.72;4.93;;;;;;;23.75;32.04;101852.28;6258382;23;20011;-82
2022/05/13 13:06:00;;;;;;;7.68;4.35;;;;;;;24.16;31.08;101840.44;6260897;23;20090;-85
2022/05/13 13:08:37;;;;;;;8.77;4.88;;;;;;;22.71;33.02;101826.34;6283977;23;20128;-84
2022/05/13 13:11:47;;;;;;;9.93;4.90;;;;;;;24.32;31.80;101836.00;6284949;23;20039;-82
2022/05/13 13:14:37;;;;;;;11.80;5.53;;;;;;;25.00;30.48;101845.59;6284170;23;20046;-81
2022/05/13 13:18:10;;;;;;;10.40;6.20;;;;;;;23.99;30.92;101847.53;6285180;23;20011;-81
2022/05/13 13:21:13;;;;;;;;;;;;;;;;;;;;;
2022/05/13 13:24:00;;;;;;;14.23;6.00;;;;;;;25.04;30.70;101835.63;6369511;23;20507;-86
2022/05/13 13:26:42;;;;;;;13.25;5.10;;;;;;;25.65;29.30;101832.06;6417352;23;20091;-84
2022/05/13 13:29:25;;;;;;;13.88;5.80;;;;;;;24.97;30.53;101845.78;6468598;23;20012;-81
2022/05/13 13:32:16;;;;;;;13.45;6.28;;;;;;;23.87;31.98;101826.00;6471658;23;20012;-83
2022/05/13 13:34:47;;;;;;;7.95;4.72;;;;;;;25.98;28.51;101860.38;6444326;23;20080;-85
2022/05/13 13:37:23;;;;;;;10.27;5.37;;;;;;;27.05;27.31;101817.09;6446495;23;20423;-83
2022/05/13 13:40:12;;;;;;;18.55;6.63;;;;;;;25.32;29.15;101828.72;6445942;23;20250;-84
2022/05/13 13:42:45;;;;;;;15.07;5.70;;;;;;;26.05;28.47;101820.78;6473135;23;20032;-81
2022/05/13 13:45:20;;;;;;;13.73;5.70;;;;;;;25.25;29.18;101838.88;6473198;23;20008;-84
2022/05/13 13:47:57;;;;;;;11.20;5.60;;;;;;;23.94;31.26;101820.28;6470904;23;20011;-83
2022/05/13 13:50:34;;;;;;;15.52;4.97;;;;;;;25.13;31.00;101824.41;6470799;23;20009;-83
2022/05/13 13:54:00;;;;;;;;;;;;;;;;;;;;;
2022/05/13 13:57:02;;;;;;;13.52;5.53;;;;;;;26.96;28.20;101823.06;6469463;23;20403;-82
2022/05/13 19:20:07;;;;;;;11.50;3.47;;;;;;;17.09;53.62;101818.56;6343875;23;20022;-83
2022/05/13 19:27:04;;;;;;;11.88;4.47;;;;;;;17.12;53.38;101843.06;6248683;23;20019;-83
2022/05/13 19:29:51;;;;;;;11.85;4.25;;;;;;;17.01;53.58;101839.81;6250674;23;20023;-83
2022/05/13 19:39:44;;;;;;;17.70;3.95;;;;;;;17.24;52.63;101859.50;6106360;24;20078;-82
2022/05/13 19:46:34;;;;;;;;;;;;;;;;;;;;;
2022/05/13 20:25:24;;;;;;;;;;;;;;;16.37;53.26;101874.50;6270768;23;20049;-79
2022/05/13 20:28:44;;;;;;;16.50;5.35;;;;;;;16.10;55.23;101864.47;6288312;23;19933;-82
2022/05/13 20:31:40;;;;;;;;;;;;;;;;;;;;;
2022/05/13 21:27:21;;;;;;;15.55;5.20;;;;;;;14.36;61.29;101874.00;6023883;24;20019;-82
2022/05/13 22:14:47;;;;;;;22.30;4.93;;;;;;;13.53;66.16;101893.09;5630773;23;18770843;-82
2022/05/13 22:24:38;;;;;;;14.65;5.10;;;;;;;13.30;66.62;101893.25;6258842;23;20090;-86
2022/05/13 22:27:10;;;;;;;19.10;4.38;;;;;;;13.20;67.41;101899.38;6256139;23;20020;-79
2022/05/13 22:29:41;;;;;;;15.40;5.17;;;;;;;13.24;67.48;101895.88;6256404;23;20090;-80
2022/05/13 22:32:14;;;;;;;22.87;9.57;;;;;;;13.18;67.87;101903.78;6256534;23;20011;-81
2022/05/13 22:34:45;;;;;;;;;;;;;;;13.29;65.25;101907.19;6256805;23;20086;-81
2022/05/13 22:37:16;;;;;;;20.83;6.50;;;;;;;13.11;67.73;101895.94;6256641;23;20720;-80
2022/05/13 22:39:48;;;;;;;18.87;6.33;;;;;;;13.03;68.16;101892.50;6256350;23;20263;-79
2022/05/13 22:42:19;;;;;;;19.33;6.07;;;;;;;13.02;68.31;101893.38;6256562;23;20018;-79
2022/05/13 22:44:51;;;;;;;18.27;5.50;;;;;;;12.99;68.84;101898.63;6256161;23;20035;-79
2022/05/13 22:47:22;;;;;;;23.27;6.07;;;;;;;12.94;69.12;101893.44;6256306;23;20627;-79
2022/05/13 22:49:53;;;;;;;13.40;5.03;;;;;;;12.97;69.06;101895.16;6254259;23;20455;-79
2022/05/13 22:52:25;;;;;;;19.63;5.37;;;;;;;12.92;69.37;101886.47;6250593;23;20414;-81
2022/05/13 22:54:56;;;;;;;12.87;5.67;;;;;;;12.65;69.73;101895.28;6226121;23;20016;-80
2022/05/13 22:57:28;;;;;;;17.43;6.40;;;;;;;12.61;69.31;101890.97;6249808;23;20044;-77
2022/05/13 22:59:59;;;;;;;11.03;4.67;;;;;;;12.45;70.13;101891.00;6289755;23;20077;-78
2022/05/13 23:02:32;;;;;;;17.30;5.10;;;;;;;12.38;69.31;101895.38;6373801;23;20121;-81
2022/05/13 23:05:04;;;;;;;12.05;4.68;;;;;;;12.50;69.12;101891.00;6403201;23;20060;-80
2022/05/13 23:13:06;;;;;;;15.35;4.65;;;;;;;12.22;68.48;101893.69;6413670;23;20013;-80
2022/05/13 23:15:37;;;;;;;19.23;5.27;;;;;;;12.20;68.41;101891.06;6402851;23;20072;-81
2022/05/13 23:18:10;;;;;;;20.00;5.90;;;;;;;12.15;68.63;101892.78;6403524;23;20041;-82
2022/05/13 23:20:44;;;;;;;16.10;5.68;;;;;;;12.19;68.80;101889.31;6403124;23;20009;-81
2022/05/13 23:23:16;;;;;;;13.98;5.15;;;;;;;12.28;68.94;101885.81;6377704;23;20012;-79
2022/05/13 23:25:47;;;;;;;13.90;6.43;;;;;;;12.03;69.43;101885.84;6402968;23;20335;-82
2022/05/13 23:28:19;;;;;;;11.77;5.70;;;;;;;12.10;69.68;101891.06;6403054;23;20010;-81
2022/05/13 23:30:50;;;;;;;15.03;5.17;;;;;;;11.86;70.11;101900.63;6403548;23;20423;-80
2022/05/13 23:33:22;;;;;;;18.77;6.10;;;;;;;11.90;70.17;101897.16;6404250;23;20084;-81
2022/05/13 23:35:53;;;;;;;14.20;5.40;;;;;;;11.77;70.16;101900.63;6403535;23;20423;-82
2022/05/13 23:38:24;;;;;;;13.80;5.67;;;;;;;11.78;70.12;101902.38;6403228;23;20017;-81
2022/05/13 23:40:56;;;;;;;15.23;5.50;;;;;;;11.75;70.37;101905.88;6402875;23;20329;-80
2022/05/13 23:43:27;;;;;;;16.87;5.90;;;;;;;11.64;70.40;101903.25;6403450;23;20221;-79
2022/05/13 23:46:00;;;;;;;19.13;5.57;;;;;;;11.72;70.24;101900.66;6403107;23;20490;-81
2022/05/13 23:48:31;;;;;;;16.10;5.63;;;;;;;11.62;70.29;101899.78;6402838;23;20013;-80
2022/05/13 23:51:04;;;;;;;13.60;4.80;;;;;;;11.56;70.40;101905.00;6402586;23;20005;-79
2022/05/13 23:56:31;;;;;;;14.18;4.43;;;;;;;11.50;69.98;101897.16;6402715;23;20012;-80
2022/05/13 23:59:06;;;;;;;21.42;5.47;;;;;;;11.49;69.87;101898.00;6402493;23;20044;-79
